createdAt,value
2018-09-14T00:03:51.544Z,67.51
2018-09-14T00:08:54.864Z,67.96
2018-09-14T00:13:58.270Z,67.95
2018-09-14T00:19:01.638Z,67.75
2018-09-14T00:24:05.057Z,67.78
2018-09-14T00:29:08.417Z,67.97
2018-09-14T00:34:11.749Z,67.91
2018-09-14T00:39:15.085Z,68.26
2018-09-14T00:44:18.401Z,67.86
2018-09-14T00:49:21.754Z,68.35
2018-09-14T00:54:25.097Z,68.05
2018-09-14T00:59:28.439Z,67.95
2018-09-14T01:04:31.802Z,67.89
2018-09-14T01:09:35.150Z,68.30
2018-09-14T01:14:38.473Z,67.79
2018-09-14T01:19:41.832Z,67.70
2018-09-14T01:24:45.163Z,68.01
2018-09-14T01:29:48.529Z,68.13
2018-09-14T01:34:51.884Z,68.19
2018-09-14T01:39:55.218Z,67.91
2018-09-14T01:44:58.566Z,67.81
2018-09-14T01:50:02.040Z,68.06
2018-09-14T01:55:06.402Z,67.92
2018-09-14T02:00:09.767Z,68.38
2018-09-14T02:05:13.110Z,68.39
2018-09-14T02:10:23.606Z,68.06
2018-09-14T02:15:26.938Z,68.09
2018-09-14T02:20:30.231Z,68.16
2018-09-14T02:25:33.611Z,68.31
2018-09-14T02:30:36.955Z,67.76
2018-09-14T02:35:40.259Z,67.70
2018-09-14T02:40:43.591Z,67.60
2018-09-14T02:45:46.941Z,67.86
2018-09-14T02:50:50.303Z,67.42
2018-09-14T02:55:53.746Z,67.63
2018-09-14T03:00:57.075Z,67.61
2018-09-14T03:06:00.406Z,67.46
2018-09-14T03:11:03.727Z,67.58
2018-09-14T03:16:07.023Z,67.63
2018-09-14T03:21:10.379Z,67.40
2018-09-14T03:26:14.140Z,67.80
2018-09-14T03:31:17.447Z,67.71
2018-09-14T03:36:20.750Z,68.05
2018-09-14T03:41:24.055Z,68.16
2018-09-14T03:46:27.375Z,67.81
2018-09-14T03:51:30.700Z,68.33
2018-09-14T03:56:34.017Z,67.97
2018-09-14T04:01:37.329Z,68.41
2018-09-14T04:06:40.633Z,69.26
2018-09-14T04:11:44.085Z,68.95
2018-09-14T04:16:47.429Z,69.25
2018-09-14T04:21:50.722Z,69.11
2018-09-14T04:26:54.066Z,69.52
2018-09-14T04:31:57.434Z,69.21
2018-09-14T04:37:00.750Z,69.66
2018-09-14T04:42:04.146Z,69.62
2018-09-14T04:47:07.435Z,69.99
2018-09-14T04:52:10.809Z,70.29
2018-09-14T04:57:14.189Z,70.29
2018-09-14T05:02:17.606Z,70.49
2018-09-14T05:07:20.939Z,70.41
2018-09-14T05:12:25.074Z,70.59
2018-09-14T05:17:28.400Z,70.58
2018-09-14T05:22:31.719Z,70.69
2018-09-14T05:27:35.039Z,70.45
2018-09-14T05:32:38.379Z,70.69
2018-09-14T05:37:41.699Z,70.93
2018-09-14T05:42:45.057Z,71.03
2018-09-14T05:47:48.380Z,70.72
2018-09-14T05:52:51.706Z,70.86
2018-09-14T05:57:55.022Z,70.70
2018-09-14T06:02:58.411Z,70.28
2018-09-14T06:08:01.748Z,70.32
2018-09-14T06:13:05.079Z,70.36
2018-09-14T06:18:08.384Z,69.91
2018-09-14T06:28:21.282Z,69.52
2018-09-14T06:33:24.646Z,68.85
2018-09-14T06:38:27.986Z,68.86
2018-09-14T06:43:31.327Z,69.09
2018-09-14T06:48:34.654Z,69.54
2018-09-14T06:53:38.060Z,69.09
2018-09-14T06:58:41.419Z,68.69
2018-09-14T07:03:44.771Z,68.59
2018-09-14T07:08:48.167Z,68.28
2018-09-14T07:13:51.483Z,67.68
2018-09-14T07:18:54.840Z,67.02
2018-09-14T07:23:58.170Z,66.19
2018-09-14T07:29:01.569Z,65.63
2018-09-14T07:34:04.836Z,66.00
2018-09-14T07:39:09.512Z,66.50
2018-09-14T07:44:12.837Z,66.35
2018-09-14T07:49:16.166Z,66.09
2018-09-14T07:54:19.459Z,66.28
2018-09-14T07:59:22.778Z,65.65
2018-09-14T08:04:26.226Z,65.40
2018-09-14T08:09:29.560Z,65.41
2018-09-14T08:14:32.869Z,66.23
2018-09-14T08:19:36.173Z,66.48
2018-09-14T08:24:39.538Z,66.13
2018-09-14T08:29:42.855Z,66.61
2018-09-14T08:34:46.201Z,66.55
2018-09-14T08:39:49.509Z,66.43
2018-09-14T08:44:53.054Z,66.56
2018-09-14T08:49:56.350Z,66.68
2018-09-14T08:54:59.686Z,67.29
2018-09-14T09:00:03.089Z,67.77
2018-09-14T09:05:06.580Z,68.22
2018-09-14T09:10:09.876Z,67.70
2018-09-14T09:15:13.201Z,68.08
2018-09-14T09:20:16.511Z,67.39
2018-09-14T09:25:19.856Z,67.50
2018-09-14T09:30:23.198Z,65.26
2018-09-14T09:35:26.543Z,64.20
2018-09-14T09:40:29.863Z,64.26
2018-09-14T09:45:33.185Z,62.15
2018-09-14T09:50:36.554Z,61.99
2018-09-14T09:55:39.871Z,61.87
2018-09-14T10:00:48.639Z,62.27
2018-09-14T10:06:01.222Z,61.96
2018-09-14T10:11:04.576Z,61.28
2018-09-14T10:16:07.912Z,61.59
2018-09-14T10:21:11.257Z,61.53
2018-09-14T10:26:14.613Z,61.97
2018-09-14T10:31:17.943Z,61.81
2018-09-14T10:36:21.257Z,61.57
2018-09-14T10:41:24.577Z,61.03
2018-09-14T10:46:27.943Z,60.99
2018-09-14T10:51:31.482Z,60.53
2018-09-14T10:56:34.795Z,60.78
2018-09-14T11:01:38.150Z,60.53
2018-09-14T11:06:41.590Z,60.41
2018-09-14T11:11:44.874Z,59.70
2018-09-14T11:16:48.175Z,59.99
2018-09-14T11:21:51.511Z,60.18
2018-09-14T11:26:54.850Z,60.69
2018-09-14T11:31:58.155Z,60.86
2018-09-14T11:37:01.520Z,61.10
2018-09-14T11:42:04.926Z,60.26
2018-09-14T11:47:08.255Z,59.95
2018-09-14T11:52:11.571Z,59.77
2018-09-14T11:57:14.866Z,59.37
2018-09-14T12:02:18.206Z,59.15
2018-09-14T12:07:21.539Z,59.07
2018-09-14T12:12:25.099Z,59.74
2018-09-14T12:17:28.490Z,59.40
2018-09-14T12:22:31.881Z,59.38
2018-09-14T12:27:35.218Z,59.54
2018-09-14T12:32:38.643Z,58.76
2018-09-14T12:37:41.975Z,58.25
2018-09-14T12:42:45.848Z,57.98
2018-09-14T12:47:49.341Z,57.17
2018-09-14T12:52:52.826Z,56.84
2018-09-14T12:57:56.227Z,57.06
2018-09-14T13:02:59.592Z,56.56
2018-09-14T13:08:03.183Z,57.04
2018-09-14T13:13:06.639Z,57.85
2018-09-14T13:18:09.994Z,57.73
2018-09-14T13:23:14.038Z,57.66
2018-09-14T13:28:17.511Z,57.28
2018-09-14T13:33:20.935Z,56.90
2018-09-14T13:38:24.251Z,57.58
2018-09-14T13:43:27.599Z,57.37
2018-09-14T13:48:30.910Z,58.03
2018-09-14T13:53:34.324Z,57.52
2018-09-14T13:58:37.638Z,56.86
2018-09-14T14:03:40.957Z,56.27
2018-09-14T14:08:44.291Z,53.61
2018-09-14T14:13:47.836Z,51.81
2018-09-14T14:18:51.122Z,50.18
2018-09-14T14:23:54.477Z,49.38
2018-09-14T14:28:57.811Z,49.34
2018-09-14T14:34:01.131Z,49.42
2018-09-14T14:39:05.722Z,49.96
2018-09-14T14:44:09.039Z,50.64
2018-09-14T14:49:12.426Z,50.14
2018-09-14T14:54:15.842Z,50.81
2018-09-14T14:59:19.186Z,51.38
2018-09-14T15:04:22.546Z,51.68
2018-09-14T15:09:25.871Z,52.49
2018-09-14T15:14:29.185Z,52.43
2018-09-14T15:19:32.527Z,52.38
2018-09-14T15:24:35.898Z,52.04
2018-09-14T15:29:39.431Z,52.70
2018-09-14T15:34:42.730Z,52.64
2018-09-14T15:39:46.123Z,52.99
2018-09-14T15:44:49.459Z,52.98
2018-09-14T15:49:52.794Z,53.83
2018-09-14T15:54:56.146Z,54.23
2018-09-14T15:59:59.558Z,54.61
2018-09-14T16:05:02.907Z,53.76
2018-09-14T16:10:06.283Z,53.94
2018-09-14T16:15:09.631Z,54.49
2018-09-14T16:20:13.900Z,54.45
2018-09-14T16:25:17.219Z,54.77
2018-09-14T16:30:20.619Z,54.66
2018-09-14T16:35:23.947Z,55.00
2018-09-14T16:40:27.262Z,55.16
2018-09-14T16:45:30.729Z,55.28
2018-09-14T16:50:34.094Z,55.10
2018-09-14T16:55:37.474Z,56.13
2018-09-14T17:00:40.789Z,56.99
2018-09-14T17:05:44.122Z,57.37
2018-09-14T17:10:47.563Z,57.21
2018-09-14T17:15:51.014Z,57.47
2018-09-14T17:20:54.363Z,58.06
2018-09-14T17:25:57.734Z,57.74
2018-09-14T17:31:01.080Z,58.00
2018-09-14T17:36:04.395Z,58.02
2018-09-14T17:41:07.927Z,58.07
2018-09-14T17:46:11.267Z,58.56
2018-09-14T17:51:14.579Z,58.48
2018-09-14T17:56:17.950Z,58.95
2018-09-14T18:01:21.284Z,58.75
2018-09-14T18:06:24.621Z,59.18
2018-09-14T18:11:27.930Z,60.10
2018-09-14T18:16:31.290Z,60.06
2018-09-14T18:21:34.630Z,60.42
2018-09-14T18:26:37.966Z,60.19
2018-09-14T18:31:41.303Z,60.50
2018-09-14T18:36:44.614Z,61.01
2018-09-14T18:41:47.990Z,61.13
2018-09-14T18:46:51.389Z,61.14
2018-09-14T18:51:54.668Z,61.83
2018-09-14T18:56:58.028Z,61.58
2018-09-14T19:02:01.350Z,61.84
2018-09-14T19:07:04.656Z,61.87
2018-09-14T19:12:08.151Z,62.51
2018-09-14T19:17:11.769Z,62.18
2018-09-14T19:22:15.108Z,62.50
2018-09-14T19:27:18.528Z,63.08
2018-09-14T19:32:21.865Z,63.61
2018-09-14T19:37:25.235Z,63.46
2018-09-14T19:42:28.557Z,63.57
2018-09-14T19:47:31.990Z,63.45
2018-09-14T19:52:35.369Z,63.49
2018-09-14T19:57:38.751Z,63.70
2018-09-14T20:02:42.192Z,63.72
2018-09-14T20:07:45.764Z,63.95
2018-09-14T20:12:49.140Z,64.26
2018-09-14T20:17:52.526Z,64.62
2018-09-14T20:22:55.899Z,64.34
2018-09-14T20:27:59.228Z,64.67
2018-09-14T20:33:02.663Z,64.69
2018-09-14T20:38:06.001Z,65.11
2018-09-14T20:43:09.451Z,65.49
2018-09-14T20:48:12.770Z,65.91
2018-09-14T20:53:16.078Z,66.30
2018-09-14T20:58:19.400Z,66.34
2018-09-14T21:03:22.743Z,65.66
2018-09-14T21:08:26.163Z,65.71
2018-09-14T21:13:29.478Z,65.79
2018-09-14T21:18:32.807Z,65.66
2018-09-14T21:23:36.138Z,65.03
2018-09-14T21:28:39.617Z,65.19
2018-09-14T21:33:43.017Z,65.79
2018-09-14T21:38:46.295Z,65.87
2018-09-14T21:43:49.643Z,65.93
2018-09-14T21:48:52.993Z,65.52
2018-09-14T21:53:56.368Z,66.28
2018-09-14T21:58:59.691Z,66.18
2018-09-14T22:04:02.983Z,66.82
2018-09-14T22:09:08.807Z,66.52
2018-09-14T22:14:12.093Z,66.94
2018-09-14T22:19:21.991Z,66.59
2018-09-14T22:24:25.302Z,67.32
2018-09-14T22:29:28.654Z,67.42
2018-09-14T22:34:31.975Z,67.48
2018-09-14T22:39:35.262Z,67.96
2018-09-14T22:44:38.564Z,67.65
2018-09-14T22:49:41.893Z,68.12
2018-09-14T22:54:45.317Z,68.24
2018-09-14T22:59:48.974Z,68.24
2018-09-14T23:04:52.279Z,68.49
2018-09-14T23:09:55.646Z,67.60
2018-09-14T23:14:58.958Z,67.33
2018-09-14T23:20:02.299Z,67.39
2018-09-14T23:25:06.590Z,67.81
2018-09-14T23:30:09.906Z,68.05
2018-09-14T23:35:13.232Z,67.97
2018-09-14T23:40:16.566Z,68.15
2018-09-14T23:45:19.884Z,68.33
2018-09-14T23:50:23.257Z,68.42
2018-09-14T23:55:26.806Z,68.66
